weather.gov     
National Weather Service

Terminal Aerodrome Forecast
NWS Homepage
This page is being discontinued on March 12, 2014.
The same data is available at this site. Please update your bookmarks.
Thank you, and we apologize for the inconvenience.
Please send an email to SR-SRH.Webmaster@noaa.gov with any concerns.


Current Version
Previous Version:    01  02  03  04  05  06  07  08  09  10  11  12  13  14  15  16  17  18  19  20  21  22  23  24  25  
[Printable]
673
FTUS43 KFSD 230500
TAFFSD
TAF
KFSD 230520Z 2306/2406 14017G26KT P6SM OVC100
     FM231400 14027G38KT P6SM OVC100
     FM232200 16025G34KT P6SM OVC080
     FM240200 12010KT P6SM BKN050
      TEMPO 2403/2406 6SM -TSRA BKN040CB=


U.S. Dept. of Commerce
NOAA National Weather Service
1325 East West Highway
Silver Spring, MD 20910
E-mail: w-nws.webmaster@noaa.gov
Page last modified: May 16, 2007
NATIONAL WEATHER SERVICE: for Safety, for Work, for Fun - FOR LIFE